Time;durP1;ratioP1;P1;durP2;ratioP2;P2;SDS_P1;SDS_P2;PMS_P1;PMS_P2;Temp;Humidity;BMP_temperature;BMP_pressure;BME280_temperature;BME280_humidity;BME280_pressure;Samples;Min_cycle;Max_cycle;Signal;HPM_P1;HPM_P2
2023/09/21 00:02:49;;;;;;;;;;;;;;;;;;6355259;27;19980;-81
2023/09/21 00:05:51;;;;;;;;;;;;;;;;;;6362888;27;20292;-81
2023/09/21 00:08:52;;;;;;;;;;;;;;;;;;6361576;27;19969;-81
2023/09/21 00:11:54;;;;;;;;;;;;;;;;;;6356620;27;19997;-80
2023/09/21 00:14:54;;;;;;;;;;;;;;;;;;6362246;27;19919;-81
2023/09/21 00:17:55;;;;;;;;;;;;;;;;;;6341463;27;19920;-80
2023/09/21 00:20:56;;;;;;;;;;;;;;;;;;6364165;27;19968;-80
2023/09/21 00:24:00;;;;;;;;;;;;;;;;;;6364374;27;19919;-80
2023/09/21 00:27:01;;;;;;;;;;;;;;;;;;6363249;27;19979;-80
2023/09/21 00:30:04;;;;;;;;;;;;;;;;;;6363291;27;19986;-80
2023/09/21 00:33:07;;;;;;;;;;;;;;;;;;6356757;27;19908;-80
2023/09/21 00:36:13;;;;;;;;;;;;;;;;;;6343984;27;19919;-80
2023/09/21 00:39:13;;;;;;;;;;;;;;;;;;6360055;27;20293;-79
2023/09/21 00:42:13;;;;;;;;;;;;;;;;;;6359081;27;20019;-80
2023/09/21 00:45:14;;;;;;;;;;;;;;;;;;6364625;27;19919;-80
2023/09/21 00:48:23;;;;;;;;;;;;;;;;;;6358851;27;20441;-80
2023/09/21 00:51:23;;;;;;;;;;;;;;;;;;6377547;27;19920;-79
2023/09/21 00:54:23;;;;;;;;;;;;;;;;;;6369145;27;19919;-79
2023/09/21 00:57:24;;;;;;;;;;;;;;;;;;6367731;27;19915;-79
2023/09/21 01:00:25;;;;;;;;;;;;;;;;;;6365750;27;19920;-79
2023/09/21 01:03:27;;;;;;;;;;;;;;;;;;6362990;27;19965;-79
2023/09/21 01:06:28;;;;;;;;;;;;;;;;;;6361022;27;19931;-79
2023/09/21 01:09:28;;;;;;;;;;;;;;;;;;6368491;27;20392;-79
2023/09/21 01:12:28;;;;;;;;;;;;;;;;;;6367739;27;19980;-78
2023/09/21 01:15:29;;;;;;;;;;;;;;;;;;6346639;27;19953;-79
2023/09/21 01:18:29;;;;;;;;;;;;;;;;;;6383096;27;19922;-79
2023/09/21 01:21:30;;;;;;;;;;;;;;;;;;6383835;27;19922;-79
2023/09/21 01:24:30;;;;;;;;;;;;;;;;;;6382559;27;19915;-78
2023/09/21 01:27:32;;;;;;;;;;;;;;;;;;6384102;27;20336;-79
2023/09/21 01:30:32;;;;;;;;;;;;;;;;;;6359168;27;19969;-75
2023/09/21 01:33:33;;;;;;;;;;;;;;;;;;6364882;27;19912;-75
2023/09/21 01:36:33;;;;;;;;;;;;;;;;;;6354942;27;19907;-75
2023/09/21 01:39:35;;;;;;;;;;;;;;;;;;6364804;27;19915;-75
2023/09/21 01:42:41;;;;;;;;;;;;;;;;;;6368180;27;19915;-75
2023/09/21 01:45:42;;;;;;;;;;;;;;;;;;6361961;27;19912;-76
2023/09/21 01:48:42;;;;;;;;;;;;;;;;;;6362421;27;20003;-76
2023/09/21 01:51:42;;;;;;;;;;;;;;;;;;6357432;27;19947;-76
2023/09/21 01:54:43;;;;;;;;;;;;;;;;;;6373514;27;20370;-75
2023/09/21 01:57:43;;;;;;;;;;;;;;;;;;6362135;27;19923;-76
2023/09/21 02:00:46;;;;;;;;;;;;;;;;;;6353991;27;19919;-75
2023/09/21 02:03:46;;;;;;;;;;;;;;;;;;6364695;27;19911;-75
2023/09/21 02:06:47;;;;;;;;;;;;;;;;;;6372755;27;19926;-75
2023/09/21 02:09:47;;;;;;;;;;;;;;;;;;6372315;27;19915;-75
2023/09/21 02:12:47;;;;;;;;;;;;;;;;;;6353509;27;19916;-76
2023/09/21 02:15:51;;;;;;;;;;;;;;;;;;6347313;28;19908;-75
2023/09/21 02:18:52;;;;;;;;;;;;;;;;;;6359738;27;19912;-75
2023/09/21 02:21:54;;;;;;;;;;;;;;;;;;6352019;27;19926;-76
2023/09/21 02:24:55;;;;;;;;;;;;;;;;;;6371889;27;19958;-75
2023/09/21 02:27:55;;;;;;;;;;;;;;;;;;6371036;27;20419;-75
2023/09/21 02:30:56;;;;;;;;;;;;;;;;;;6370190;27;19963;-75
2023/09/21 02:33:56;;;;;;;;;;;;;;;;;;6348417;27;19916;-76
2023/09/21 02:36:56;;;;;;;;;;;;;;;;;;6350597;27;19911;-76
2023/09/21 02:39:56;;;;;;;;;;;;;;;;;;6352292;27;19976;-80
2023/09/21 02:42:56;;;;;;;;;;;;;;;;;;6350582;27;19915;-79
2023/09/21 02:45:56;;;;;;;;;;;;;;;;;;6354338;27;19937;-80
2023/09/21 02:48:57;;;;;;;;;;;;;;;;;;6368646;27;19911;-79
2023/09/21 02:51:58;;;;;;;;;;;;;;;;;;6347481;27;19907;-79
2023/09/21 02:54:58;;;;;;;;;;;;;;;;;;6372980;27;19907;-78
2023/09/21 02:58:00;;;;;;;;;;;;;;;;;;6353291;27;19918;-79
2023/09/21 03:01:03;;;;;;;;;;;;;;;;;;6371908;27;20016;-78
2023/09/21 03:04:03;;;;;;;;;;;;;;;;;;6368637;27;20346;-78
2023/09/21 03:07:03;;;;;;;;;;;;;;;;;;6358427;27;19951;-79
2023/09/21 03:10:09;;;;;;;;;;;;;;;;;;6362238;27;19950;-79
2023/09/21 03:13:17;;;;;;;;;;;;;;;;;;6368929;27;19915;-77
2023/09/21 03:16:17;;;;;;;;;;;;;;;;;;6364206;27;20366;-79
2023/09/21 03:19:18;;;;;;;;;;;;;;;;;;6370556;28;19912;-80
2023/09/21 03:22:19;;;;;;;;;;;;;;;;;;6372738;28;19915;-79
2023/09/21 03:25:32;;;;;;;;;;;;;;;;;;6371692;28;20022;-81
2023/09/21 03:28:34;;;;;;;;;;;;;;;;;;6348893;28;20287;-81
2023/09/21 03:31:34;;;;;;;;;;;;;;;;;;6356889;27;20346;-80
2023/09/21 03:34:34;;;;;;;;;;;;;;;;;;6357047;27;19949;-80
2023/09/21 03:37:34;;;;;;;;;;;;;;;;;;6364935;27;19954;-80
2023/09/21 03:40:35;;;;;;;;;;;;;;;;;;6355187;27;20366;-80
2023/09/21 03:43:36;;;;;;;;;;;;;;;;;;6379863;27;19915;-79
2023/09/21 03:46:38;;;;;;;;;;;;;;;;;;6361019;27;19912;-80
2023/09/21 03:49:38;;;;;;;;;;;;;;;;;;6366075;27;19926;-80
2023/09/21 03:52:38;;;;;;;;;;;;;;;;;;6367506;27;19907;-80
2023/09/21 03:55:39;;;;;;;;;;;;;;;;;;6351001;27;19912;-80
2023/09/21 03:58:39;;;;;;;;;;;;;;;;;;6355075;27;19915;-80
2023/09/21 04:01:40;;;;;;;;;;;;;;;;;;6363753;27;19964;-81
2023/09/21 04:04:41;;;;;;;;;;;;;;;;;;6372871;27;20029;-80
2023/09/21 04:07:41;;;;;;;;;;;;;;;;;;6375881;27;19907;-81
2023/09/21 04:10:41;;;;;;;;;;;;;;;;;;6375594;27;19962;-81
2023/09/21 04:13:41;;;;;;;;;;;;;;;;;;6356264;27;19907;-80
2023/09/21 04:16:42;;;;;;;;;;;;;;;;;;6376381;27;20318;-80
2023/09/21 04:19:42;;;;;;;;;;;;;;;;;;6354741;27;19911;-81
2023/09/21 04:22:42;;;;;;;;;;;;;;;;;;6356864;27;19926;-81
2023/09/21 04:25:42;;;;;;;;;;;;;;;;;;6373810;27;19919;-81
2023/09/21 04:28:44;;;;;;;;;;;;;;;;;;6364151;27;20391;-81
2023/09/21 04:31:45;;;;;;;;;;;;;;;;;;6381614;27;19972;-81
2023/09/21 04:34:45;;;;;;;;;;;;;;;;;;6388128;27;19912;-79
2023/09/21 04:37:45;;;;;;;;;;;;;;;;;;6376976;27;19923;-80
2023/09/21 04:40:48;;;;;;;;;;;;;;;;;;6362105;28;19912;-80
2023/09/21 04:43:48;;;;;;;;;;;;;;;;;;6388022;27;20325;-81
2023/09/21 04:46:48;;;;;;;;;;;;;;;;;;6372408;27;19950;-80
2023/09/21 04:49:50;;;;;;;;;;;;;;;;;;6366230;27;19950;-81
2023/09/21 04:52:51;;;;;;;;;;;;;;;;;;6374579;27;19915;-80
2023/09/21 04:55:51;;;;;;;;;;;;;;;;;;6354016;27;19969;-81
2023/09/21 04:58:55;;;;;;;;;;;;;;;;;;6375680;27;19946;-80
2023/09/21 05:01:55;;;;;;;;;;;;;;;;;;6372079;27;20352;-81
2023/09/21 05:04:56;;;;;;;;;;;;;;;;;;6360504;27;19919;-81
2023/09/21 05:07:59;;;;;;;;;;;;;;;;;;6369350;27;19983;-81
2023/09/21 05:11:00;;;;;;;;;;;;;;;;;;6338747;27;19926;-81
2023/09/21 05:14:02;;;;;;;;;;;;;;;;;;6360823;27;19977;-81
2023/09/21 05:17:02;;;;;;;;;;;;;;;;;;6337378;27;19916;-81
2023/09/21 05:20:04;;;;;;;;;;;;;;;;;;6352612;27;19915;-82
2023/09/21 05:23:04;;;;;;;;;;;;;;;;;;6357772;27;19918;-82
2023/09/21 05:26:04;;;;;;;;;;;;;;;;;;6365836;27;19912;-82
2023/09/21 05:29:05;;;;;;;;;;;;;;;;;;6365061;27;19911;-82
2023/09/21 05:32:05;;;;;;;;;;;;;;;;;;6354792;27;20281;-82
2023/09/21 05:35:07;;;;;;;;;;;;;;;;;;6353786;27;20278;-82
2023/09/21 05:38:08;;;;;;;;;;;;;;;;;;6347301;27;19911;-82
2023/09/21 05:41:10;;;;;;;;;;;;;;;;;;6362381;27;19912;-83
2023/09/21 05:44:11;;;;;;;;;;;;;;;;;;6357540;27;20010;-82
2023/09/21 05:47:11;;;;;;;;;;;;;;;;;;6355884;27;19936;-82
2023/09/21 05:50:13;;;;;;;;;;;;;;;;;;6338901;27;20002;-81
2023/09/21 05:53:13;;;;;;;;;;;;;;;;;;6354490;27;19908;-81
2023/09/21 05:56:14;;;;;;;;;;;;;;;;;;6363875;27;19964;-81
2023/09/21 05:59:17;;;;;;;;;;;;;;;;;;6359166;27;20346;-82
2023/09/21 06:02:17;;;;;;;;;;;;;;;;;;6344492;27;19956;-80
2023/09/21 06:05:19;;;;;;;;;;;;;;;;;;6365385;27;19930;-75
2023/09/21 06:08:19;;;;;;;;;;;;;;;;;;6349007;27;19923;-76
2023/09/21 06:11:19;;;;;;;;;;;;;;;;;;6352513;27;19945;-75
2023/09/21 06:14:20;;;;;;;;;;;;;;;;;;6354146;27;19911;-76
2023/09/21 06:17:20;;;;;;;;;;;;;;;;;;6353132;27;19927;-75
2023/09/21 06:20:21;;;;;;;;;;;;;;;;;;6362363;27;19919;-75
2023/09/21 06:23:21;;;;;;;;;;;;;;;;;;6359281;27;19919;-75
2023/09/21 06:26:22;;;;;;;;;;;;;;;;;;6356442;27;19912;-76
2023/09/21 06:29:23;;;;;;;;;;;;;;;;;;6363750;27;20377;-75
2023/09/21 06:32:23;;;;;;;;;;;;;;;;;;6363351;27;20387;-75
2023/09/21 06:35:24;;;;;;;;;;;;;;;;;;6356398;27;20127;-76
2023/09/21 06:38:24;;;;;;;;;;;;;;;;;;6342926;27;19915;-76
2023/09/21 06:41:24;;;;;;;;;;;;;;;;;;6346711;27;19915;-76
2023/09/21 06:44:28;;;;;;;;;;;;;;;;;;6371830;27;20346;-76
2023/09/21 06:47:28;;;;;;;;;;;;;;;;;;6372817;27;19907;-76
2023/09/21 06:50:28;;;;;;;;;;;;;;;;;;6368147;27;20343;-76
2023/09/21 06:53:29;;;;;;;;;;;;;;;;;;6371897;27;19994;-76
2023/09/21 06:56:32;;;;;;;;;;;;;;;;;;6013974;27;10000538;-76
2023/09/21 06:59:34;;;;;;;;;;;;;;;;;;6325643;28;19995;-75
2023/09/21 07:02:35;;;;;;;;;;;;;;;;;;6361319;27;19991;-75
2023/09/21 07:05:35;;;;;;;;;;;;;;;;;;6324038;28;20432;-75
2023/09/21 07:08:36;;;;;;;;;;;;;;;;;;6317995;28;20393;-76
2023/09/21 07:11:37;;;;;;;;;;;;;;;;;;6299345;28;19916;-76
2023/09/21 07:14:37;;;;;;;;;;;;;;;;;;6303874;28;20014;-74
2023/09/21 07:17:38;;;;;;;;;;;;;;;;;;6297477;28;19939;-74
2023/09/21 07:20:38;;;;;;;;;;;;;;;;;;6316651;28;20424;-75
2023/09/21 07:23:39;;;;;;;;;;;;;;;;;;6317926;28;19920;-75
2023/09/21 07:26:39;;;;;;;;;;;;;;;;;;6313356;28;19912;-75
2023/09/21 07:29:40;;;;;;;;;;;;;;;;;;6312320;28;19921;-74
2023/09/21 07:32:40;;;;;;;;;;;;;;;;;;6306886;28;19923;-75
2023/09/21 07:35:41;;;;;;;;;;;;;;;;;;6303322;28;20030;-74
2023/09/21 07:38:41;;;;;;;;;;;;;;;;;;6316873;28;20326;-74
2023/09/21 07:41:41;;;;;;;;;;;;;;;;;;6317795;28;19920;-74
2023/09/21 07:44:44;;;;;;;;;;;;;;;;;;6315304;28;19923;-75
2023/09/21 07:47:45;;;;;;;;;;;;;;;;;;6308807;28;19931;-75
2023/09/21 07:50:46;;;;;;;;;;;;;;;;;;6307291;28;20346;-75
2023/09/21 07:53:46;;;;;;;;;;;;;;;;;;6313630;28;19916;-75
2023/09/21 07:56:46;;;;;;;;;;;;;;;;;;6297441;28;19912;-74
2023/09/21 07:59:46;;;;;;;;;;;;;;;;;;6313600;28;19934;-74
2023/09/21 08:02:47;;;;;;;;;;;;;;;;;;6315566;28;19916;-74
2023/09/21 08:05:47;;;;;;;;;;;;;;;;;;6326113;28;20508;-74
2023/09/21 08:08:48;;;;;;;;;;;;;;;;;;6326328;28;19935;-73
2023/09/21 08:11:48;;;;;;;;;;;;;;;;;;6322928;28;20354;-73
2023/09/21 08:14:48;;;;;;;;;;;;;;;;;;6340004;28;20010;-73
2023/09/21 08:17:49;;;;;;;;;;;;;;;;;;6344249;28;19955;-72
2023/09/21 08:20:49;;;;;;;;;;;;;;;;;;6345352;28;20052;-72
2023/09/21 08:23:49;;;;;;;;;;;;;;;;;;6336309;28;19916;-73
2023/09/21 08:26:49;;;;;;;;;;;;;;;;;;6348272;28;19908;-72
2023/09/21 08:29:50;;;;;;;;;;;;;;;;;;6343257;28;19912;-73
2023/09/21 08:32:50;;;;;;;;;;;;;;;;;;6334337;28;20015;-73
2023/09/21 08:35:50;;;;;;;;;;;;;;;;;;6342018;28;19912;-74
2023/09/21 08:38:53;;;;;;;;;;;;;;;;;;6339768;28;19942;-74
2023/09/21 08:41:53;;;;;;;;;;;;;;;;;;6318688;28;19911;-75
2023/09/21 08:44:55;;;;;;;;;;;;;;;;;;6338631;28;20386;-75
2023/09/21 08:47:56;;;;;;;;;;;;;;;;;;6320091;28;19999;-75
2023/09/21 08:50:57;;;;;;;;;;;;;;;;;;6339852;28;19999;-74
2023/09/21 08:53:59;;;;;;;;;;;;;;;;;;6333160;28;19915;-74
2023/09/21 08:56:59;;;;;;;;;;;;;;;;;;6333365;28;19922;-74
2023/09/21 08:59:59;;;;;;;;;;;;;;;;;;6330531;28;19911;-74
2023/09/21 09:02:59;;;;;;;;;;;;;;;;;;6366346;27;20451;-75
2023/09/21 09:05:59;;;;;;;;;;;;;;;;;;6342621;28;19926;-75
2023/09/21 09:08:59;;;;;;;;;;;;;;;;;;6338159;28;19912;-75
2023/09/21 09:12:00;;;;;;;;;;;;;;;;;;6346614;28;19912;-75
2023/09/21 09:15:02;;;;;;;;;;;;;;;;;;6345378;28;19916;-74
2023/09/21 09:18:03;;;;;;;;;;;;;;;;;;6326319;28;20014;-74
2023/09/21 09:21:03;;;;;;;;;;;;;;;;;;6344745;28;20494;-75
2023/09/21 09:24:06;;;;;;;;;;;;;;;;;;6325980;28;20007;-76
2023/09/21 09:27:06;;;;;;;;;;;;;;;;;;6343326;28;19919;-76
2023/09/21 09:30:08;;;;;;;;;;;;;;;;;;6325586;28;20597;-75
2023/09/21 09:33:12;;;;;;;;;;;;;;;;;;6325483;28;19919;-76
2023/09/21 09:36:13;;;;;;;;;;;;;;;;;;6325840;28;19950;-75
2023/09/21 09:39:15;;;;;;;;;;;;;;;;;;6344856;28;20341;-72
2023/09/21 09:42:15;;;;;;;;;;;;;;;;;;6335162;28;19920;-73
2023/09/21 09:45:16;;;;;;;;;;;;;;;;;;5979490;28;9999679;-73
2023/09/21 09:48:18;;;;;;;;;;;;;;;;;;6320873;28;19919;-73
2023/09/21 09:51:18;;;;;;;;;;;;;;;;;;6312656;28;19962;-73
2023/09/21 09:54:18;;;;;;;;;;;;;;;;;;6347618;28;20351;-74
2023/09/21 09:57:18;;;;;;;;;;;;;;;;;;6345657;28;19912;-73
2023/09/21 10:00:21;;;;;;;;;;;;;;;;;;6337503;28;19958;-74
2023/09/21 10:03:22;;;;;;;;;;;;;;;;;;6345507;27;19920;-73
2023/09/21 10:06:23;;;;;;;;;;;;;;;;;;6320519;28;20027;-73
2023/09/21 10:09:26;;;;;;;;;;;;;;;;;;6338090;28;19920;-74
2023/09/21 10:12:27;;;;;;;;;;;;;;;;;;6336739;28;20040;-73
2023/09/21 10:15:27;;;;;;;;;;;;;;;;;;6342670;28;20277;-73
2023/09/21 10:18:27;;;;;;;;;;;;;;;;;;6301751;28;19940;-73
2023/09/21 10:21:29;;;;;;;;;;;;;;;;;;6323075;28;19954;-73
2023/09/21 10:24:31;;;;;;;;;;;;;;;;;;6331611;28;20122;-72
2023/09/21 10:27:35;;;;;;;;;;;;;;;;;;6347320;28;19912;-73
2023/09/21 10:30:35;;;;;;;;;;;;;;;;;;6352052;27;20361;-73
2023/09/21 10:33:36;;;;;;;;;;;;;;;;;;6369609;27;19915;-74
2023/09/21 10:36:36;;;;;;;;;;;;;;;;;;6368060;27;19918;-74
2023/09/21 10:39:36;;;;;;;;;;;;;;;;;;6371254;27;20366;-74
2023/09/21 10:42:37;;;;;;;;;;;;;;;;;;6352244;27;20405;-74
2023/09/21 10:45:37;;;;;;;;;;;;;;;;;;6371025;27;19935;-74
2023/09/21 10:48:37;;;;;;;;;;;;;;;;;;6370093;27;19918;-75
2023/09/21 10:51:39;;;;;;;;;;;;;;;;;;6372656;27;19915;-75
2023/09/21 10:54:39;;;;;;;;;;;;;;;;;;6372401;27;19959;-74
2023/09/21 10:57:39;;;;;;;;;;;;;;;;;;6372908;27;19907;-74
2023/09/21 11:00:39;;;;;;;;;;;;;;;;;;6374782;27;19911;-74
2023/09/21 11:03:42;;;;;;;;;;;;;;;;;;6372643;27;19915;-74
2023/09/21 11:06:42;;;;;;;;;;;;;;;;;;6374036;27;19923;-74
2023/09/21 11:09:43;;;;;;;;;;;;;;;;;;6372493;27;20007;-75
2023/09/21 11:12:44;;;;;;;;;;;;;;;;;;6372986;27;19908;-74
2023/09/21 11:15:45;;;;;;;;;;;;;;;;;;6370096;27;20010;-74
2023/09/21 11:18:46;;;;;;;;;;;;;;;;;;6367370;27;19922;-75
2023/09/21 11:21:46;;;;;;;;;;;;;;;;;;6374635;28;19952;-74
2023/09/21 11:24:46;;;;;;;;;;;;;;;;;;6376014;28;20342;-74
2023/09/21 11:27:48;;;;;;;;;;;;;;;;;;6381145;28;20429;-76
2023/09/21 11:30:51;;;;;;;;;;;;;;;;;;6371681;28;19933;-74
2023/09/21 11:33:53;;;;;;;;;;;;;;;;;;6348133;28;19912;-72
2023/09/21 11:36:54;;;;;;;;;;;;;;;;;;6350257;28;19908;-74
2023/09/21 11:39:55;;;;;;;;;;;;;;;;;;6364821;28;19932;-73
2023/09/21 11:42:55;;;;;;;;;;;;;;;;;;6376115;28;20336;-74
2023/09/21 11:45:55;;;;;;;;;;;;;;;;;;6019662;28;9999749;-75
2023/09/21 11:48:55;;;;;;;;;;;;;;;;;;6355833;28;19913;-75
2023/09/21 11:51:55;;;;;;;;;;;;;;;;;;6384816;27;20369;-74
2023/09/21 11:54:56;;;;;;;;;;;;;;;;;;6382397;27;19919;-75
2023/09/21 11:57:59;;;;;;;;;;;;;;;;;;6381543;27;19923;-75
2023/09/21 12:04:08;;;;;;;;;;;;;;;;;;6374918;27;19915;-74
2023/09/21 12:07:09;;;;;;;;;;;;;;;;;;6378236;27;20011;-74
2023/09/21 12:10:09;;;;;;;;;;;;;;;;;;6378561;27;20278;-75
2023/09/21 12:13:11;;;;;;;;;;;;;;;;;;6377006;27;19984;-74
2023/09/21 12:16:11;;;;;;;;;;;;;;;;;;6377070;27;20006;-75
2023/09/21 12:19:11;;;;;;;;;;;;;;;;;;6355992;27;19914;-74
2023/09/21 12:22:12;;;;;;;;;;;;;;;;;;6376166;27;19907;-74
2023/09/21 12:25:12;;;;;;;;;;;;;;;;;;6376181;27;20398;-74
2023/09/21 12:28:12;;;;;;;;;;;;;;;;;;6375726;27;19964;-74
2023/09/21 12:31:14;;;;;;;;;;;;;;;;;;6375389;27;20262;-74
2023/09/21 12:34:15;;;;;;;;;;;;;;;;;;6374639;27;19964;-73
2023/09/21 12:37:15;;;;;;;;;;;;;;;;;;6375828;27;19907;-73
2023/09/21 12:40:16;;;;;;;;;;;;;;;;;;6376012;27;20041;-74
2023/09/21 12:43:16;;;;;;;;;;;;;;;;;;6375321;27;19958;-74
2023/09/21 12:46:16;;;;;;;;;;;;;;;;;;6375391;27;19911;-74
2023/09/21 12:49:16;;;;;;;;;;;;;;;;;;6374304;27;19907;-74
2023/09/21 12:52:16;;;;;;;;;;;;;;;;;;6356419;27;19912;-74
2023/09/21 12:55:19;;;;;;;;;;;;;;;;;;6375256;27;19907;-74
2023/09/21 12:58:19;;;;;;;;;;;;;;;;;;6375054;27;19986;-74
2023/09/21 13:01:20;;;;;;;;;;;;;;;;;;6375054;27;19919;-74
2023/09/21 13:04:20;;;;;;;;;;;;;;;;;;6371718;27;20063;-74
2023/09/21 13:07:21;;;;;;;;;;;;;;;;;;6374442;27;20366;-74
2023/09/21 13:10:21;;;;;;;;;;;;;;;;;;6373013;27;19919;-74
2023/09/21 13:13:25;;;;;;;;;;;;;;;;;;6366158;27;21374;-73
2023/09/21 13:16:25;;;;;;;;;;;;;;;;;;6362688;27;19912;-74
2023/09/21 13:19:25;;;;;;;;;;;;;;;;;;6364263;27;20033;-73
2023/09/21 13:22:26;;;;;;;;;;;;;;;;;;6356500;27;19943;-73
2023/09/21 13:25:27;;;;;;;;;;;;;;;;;;6355082;27;19923;-73
2023/09/21 13:28:27;;;;;;;;;;;;;;;;;;6364485;27;20398;-74
2023/09/21 13:31:29;;;;;;;;;;;;;;;;;;6359356;27;19911;-73
2023/09/21 13:34:29;;;;;;;;;;;;;;;;;;6347346;28;19908;-74
2023/09/21 13:37:29;;;;;;;;;;;;;;;;;;6354175;27;19957;-75
2023/09/21 13:40:29;;;;;;;;;;;;;;;;;;6353834;27;19938;-75
2023/09/21 13:43:29;;;;;;;;;;;;;;;;;;6366256;27;20305;-75
2023/09/21 13:46:30;;;;;;;;;;;;;;;;;;6365939;27;20216;-75
2023/09/21 13:49:33;;;;;;;;;;;;;;;;;;6346887;28;19915;-75
2023/09/21 13:52:33;;;;;;;;;;;;;;;;;;6357904;27;20229;-74
2023/09/21 13:55:34;;;;;;;;;;;;;;;;;;6371195;27;19915;-75
2023/09/21 13:58:35;;;;;;;;;;;;;;;;;;6365617;27;19957;-75
2023/09/21 14:01:35;;;;;;;;;;;;;;;;;;6362095;27;19912;-75
2023/09/21 14:04:35;;;;;;;;;;;;;;;;;;6363332;27;20042;-75
2023/09/21 14:07:35;;;;;;;;;;;;;;;;;;6368794;27;19961;-74
2023/09/21 14:10:35;;;;;;;;;;;;;;;;;;6371186;27;19922;-74
2023/09/21 14:13:37;;;;;;;;;;;;;;;;;;6367136;27;20380;-74
2023/09/21 14:16:37;;;;;;;;;;;;;;;;;;6334844;28;19918;-75
2023/09/21 14:19:37;;;;;;;;;;;;;;;;;;6347077;27;19908;-75
2023/09/21 14:22:37;;;;;;;;;;;;;;;;;;6353288;27;20261;-75
2023/09/21 14:25:37;;;;;;;;;;;;;;;;;;6367551;27;19922;-74
2023/09/21 14:28:38;;;;;;;;;;;;;;;;;;6371320;27;20005;-75
2023/09/21 14:31:38;;;;;;;;;;;;;;;;;;6356198;27;19966;-75
2023/09/21 14:34:39;;;;;;;;;;;;;;;;;;6348842;27;20002;-74
2023/09/21 14:37:39;;;;;;;;;;;;;;;;;;6368637;27;20353;-74
2023/09/21 14:40:39;;;;;;;;;;;;;;;;;;6361598;27;19958;-75
2023/09/21 14:43:39;;;;;;;;;;;;;;;;;;6367564;27;19994;-75
2023/09/21 14:46:40;;;;;;;;;;;;;;;;;;6366092;27;19915;-74
2023/09/21 14:49:40;;;;;;;;;;;;;;;;;;6370014;27;20305;-75
2023/09/21 14:52:40;;;;;;;;;;;;;;;;;;6372777;27;20354;-76
2023/09/21 14:55:41;;;;;;;;;;;;;;;;;;6361475;27;19911;-75
2023/09/21 14:58:41;;;;;;;;;;;;;;;;;;6347104;28;19918;-75
2023/09/21 15:01:41;;;;;;;;;;;;;;;;;;6347720;28;19912;-74
2023/09/21 15:04:43;;;;;;;;;;;;;;;;;;6361106;27;19926;-74
2023/09/21 15:07:44;;;;;;;;;;;;;;;;;;6352316;27;20277;-75
2023/09/21 15:10:54;;;;;;;;;;;;;;;;;;6372674;27;19929;-74
2023/09/21 15:13:54;;;;;;;;;;;;;;;;;;6373619;27;19911;-76
2023/09/21 15:16:54;;;;;;;;;;;;;;;;;;6376165;27;19925;-76
2023/09/21 15:19:55;;;;;;;;;;;;;;;;;;6354111;27;19954;-75
2023/09/21 15:22:58;;;;;;;;;;;;;;;;;;6360036;28;20239;-76
2023/09/21 15:25:58;;;;;;;;;;;;;;;;;;6367155;27;20281;-77
2023/09/21 15:28:58;;;;;;;;;;;;;;;;;;6346212;28;19918;-75
2023/09/21 15:32:00;;;;;;;;;;;;;;;;;;6361018;28;19955;-76
2023/09/21 15:35:00;;;;;;;;;;;;;;;;;;6364022;28;19911;-76
2023/09/21 15:38:00;;;;;;;;;;;;;;;;;;6372224;28;19915;-76
2023/09/21 15:41:00;;;;;;;;;;;;;;;;;;6362502;28;20365;-76
2023/09/21 15:44:01;;;;;;;;;;;;;;;;;;6341419;28;19915;-76
2023/09/21 15:47:03;;;;;;;;;;;;;;;;;;6357039;28;19942;-76
2023/09/21 15:50:04;;;;;;;;;;;;;;;;;;6371760;28;20287;-75
2023/09/21 15:53:04;;;;;;;;;;;;;;;;;;6373683;28;19948;-77
2023/09/21 15:56:04;;;;;;;;;;;;;;;;;;6357537;28;19926;-76
2023/09/21 15:59:05;;;;;;;;;;;;;;;;;;6346904;28;19915;-75
2023/09/21 16:02:05;;;;;;;;;;;;;;;;;;6348843;28;19908;-73
2023/09/21 16:05:05;;;;;;;;;;;;;;;;;;6345397;28;19973;-76
2023/09/21 16:08:06;;;;;;;;;;;;;;;;;;6364087;28;19912;-76
2023/09/21 16:11:06;;;;;;;;;;;;;;;;;;6353235;28;19916;-76
2023/09/21 16:14:09;;;;;;;;;;;;;;;;;;6372054;28;19908;-77
2023/09/21 16:17:09;;;;;;;;;;;;;;;;;;6371398;28;20384;-74
2023/09/21 16:20:11;;;;;;;;;;;;;;;;;;6356803;28;19920;-77
2023/09/21 16:23:11;;;;;;;;;;;;;;;;;;6346614;28;19907;-77
2023/09/21 16:26:12;;;;;;;;;;;;;;;;;;6364241;28;19958;-76
2023/09/21 16:29:12;;;;;;;;;;;;;;;;;;6345723;28;20027;-77
2023/09/21 16:32:12;;;;;;;;;;;;;;;;;;6353870;28;19928;-76
2023/09/21 16:35:13;;;;;;;;;;;;;;;;;;6355494;28;19964;-76
2023/09/21 16:38:13;;;;;;;;;;;;;;;;;;6360562;27;19912;-78
2023/09/21 16:41:14;;;;;;;;;;;;;;;;;;6354117;27;20241;-78
2023/09/21 16:44:14;;;;;;;;;;;;;;;;;;6359100;27;19912;-78
2023/09/21 16:47:14;;;;;;;;;;;;;;;;;;6350209;27;23737;-76
2023/09/21 16:50:15;;;;;;;;;;;;;;;;;;6358091;27;19958;-75
2023/09/21 16:53:15;;;;;;;;;;;;;;;;;;6356441;27;20262;-76
2023/09/21 16:56:15;;;;;;;;;;;;;;;;;;6361074;27;20412;-77
2023/09/21 16:59:16;;;;;;;;;;;;;;;;;;6363535;27;19912;-77
2023/09/21 17:02:17;;;;;;;;;;;;;;;;;;6357496;27;19918;-77
2023/09/21 17:05:22;;;;;;;;;;;;;;;;;;6360720;27;19923;-76
2023/09/21 17:08:23;;;;;;;;;;;;;;;;;;6358760;27;19928;-77
2023/09/21 17:11:24;;;;;;;;;;;;;;;;;;6355725;27;19938;-77
2023/09/21 17:14:24;;;;;;;;;;;;;;;;;;6359609;27;20370;-77
2023/09/21 17:17:24;;;;;;;;;;;;;;;;;;6368612;27;19918;-76
2023/09/21 17:20:25;;;;;;;;;;;;;;;;;;6362234;27;20362;-76
2023/09/21 17:23:25;;;;;;;;;;;;;;;;;;6362237;27;20665;-77
2023/09/21 17:26:25;;;;;;;;;;;;;;;;;;6356073;27;19951;-80
2023/09/21 17:29:25;;;;;;;;;;;;;;;;;;6357439;27;19923;-75
2023/09/21 17:32:25;;;;;;;;;;;;;;;;;;6364816;27;19949;-77
2023/09/21 17:35:26;;;;;;;;;;;;;;;;;;6358829;27;19911;-79
2023/09/21 17:38:27;;;;;;;;;;;;;;;;;;6358879;27;20345;-79
2023/09/21 17:41:28;;;;;;;;;;;;;;;;;;6375861;27;19932;-80
2023/09/21 17:44:32;;;;;;;;;;;;;;;;;;6358145;27;20379;-80
2023/09/21 17:47:33;;;;;;;;;;;;;;;;;;6359164;27;20001;-79
2023/09/21 17:50:33;;;;;;;;;;;;;;;;;;6359275;27;20010;-80
2023/09/21 17:53:33;;;;;;;;;;;;;;;;;;6355834;27;19921;-79
2023/09/21 17:56:34;;;;;;;;;;;;;;;;;;6342184;27;19956;-80
2023/09/21 17:59:34;;;;;;;;;;;;;;;;;;6359455;27;19912;-79
2023/09/21 18:02:35;;;;;;;;;;;;;;;;;;6352748;27;19922;-80
2023/09/21 18:05:36;;;;;;;;;;;;;;;;;;6357555;27;20002;-79
2023/09/21 18:08:37;;;;;;;;;;;;;;;;;;6353312;27;19911;-79
2023/09/21 18:11:38;;;;;;;;;;;;;;;;;;6353825;27;20270;-79
2023/09/21 18:14:38;;;;;;;;;;;;;;;;;;6357191;27;20012;-78
2023/09/21 18:17:39;;;;;;;;;;;;;;;;;;6359235;27;19920;-80
2023/09/21 18:20:41;;;;;;;;;;;;;;;;;;6357918;27;19922;-79
2023/09/21 18:23:41;;;;;;;;;;;;;;;;;;6358524;27;19919;-79
2023/09/21 18:26:42;;;;;;;;;;;;;;;;;;6357018;27;23568;-78
2023/09/21 18:29:42;;;;;;;;;;;;;;;;;;6347599;27;19919;-79
2023/09/21 18:32:42;;;;;;;;;;;;;;;;;;6358670;27;19915;-80
2023/09/21 18:35:42;;;;;;;;;;;;;;;;;;6351842;27;20003;-79
2023/09/21 18:38:43;;;;;;;;;;;;;;;;;;6357896;27;20383;-80
2023/09/21 18:41:43;;;;;;;;;;;;;;;;;;6352187;27;19916;-80
2023/09/21 18:44:43;;;;;;;;;;;;;;;;;;6358620;27;19912;-91
2023/09/21 18:47:43;;;;;;;;;;;;;;;;;;6371025;27;19911;-92
2023/09/21 18:50:45;;;;;;;;;;;;;;;;;;6361793;27;19915;-82
2023/09/21 18:53:45;;;;;;;;;;;;;;;;;;6333636;27;19958;-75
2023/09/21 18:56:45;;;;;;;;;;;;;;;;;;6353913;27;19911;-71
2023/09/21 18:59:47;;;;;;;;;;;;;;;;;;6356124;27;19927;-77
2023/09/21 19:02:48;;;;;;;;;;;;;;;;;;6361492;27;19991;-78
2023/09/21 19:05:48;;;;;;;;;;;;;;;;;;6349863;27;20350;-76
2023/09/21 19:08:49;;;;;;;;;;;;;;;;;;6354917;27;20467;-77
2023/09/21 19:11:49;;;;;;;;;;;;;;;;;;6356678;27;20374;-77
2023/09/21 19:14:52;;;;;;;;;;;;;;;;;;6353671;27;19943;-77
2023/09/21 19:17:54;;;;;;;;;;;;;;;;;;5984513;28;10000659;-78
2023/09/21 19:20:54;;;;;;;;;;;;;;;;;;6353822;27;19919;-77
2023/09/21 19:23:54;;;;;;;;;;;;;;;;;;6359087;28;19912;-78
2023/09/21 19:26:54;;;;;;;;;;;;;;;;;;6376369;28;19933;-78
2023/09/21 19:29:54;;;;;;;;;;;;;;;;;;6357822;28;19975;-76
2023/09/21 19:32:54;;;;;;;;;;;;;;;;;;6363400;28;19967;-76
2023/09/21 19:35:57;;;;;;;;;;;;;;;;;;6358226;28;19912;-75
2023/09/21 19:38:57;;;;;;;;;;;;;;;;;;6359508;28;20351;-75
2023/09/21 19:41:57;;;;;;;;;;;;;;;;;;6334778;28;19920;-75
2023/09/21 19:44:57;;;;;;;;;;;;;;;;;;6352097;28;20281;-75
2023/09/21 19:47:59;;;;;;;;;;;;;;;;;;6350783;28;20010;-76
2023/09/21 19:50:59;;;;;;;;;;;;;;;;;;6331289;28;19919;-77
2023/09/21 19:53:59;;;;;;;;;;;;;;;;;;6346592;28;19915;-76
2023/09/21 19:56:59;;;;;;;;;;;;;;;;;;6323898;28;20004;-76
2023/09/21 20:00:00;;;;;;;;;;;;;;;;;;6341188;28;19919;-76
2023/09/21 20:03:01;;;;;;;;;;;;;;;;;;6340467;28;19955;-76
2023/09/21 20:06:02;;;;;;;;;;;;;;;;;;6347844;28;19987;-75
2023/09/21 20:09:04;;;;;;;;;;;;;;;;;;6340590;28;20664;-69
2023/09/21 20:12:05;;;;;;;;;;;;;;;;;;6350759;27;20330;-69
2023/09/21 20:15:05;;;;;;;;;;;;;;;;;;6358555;27;19926;-70
2023/09/21 20:18:07;;;;;;;;;;;;;;;;;;6358186;27;20219;-70
2023/09/21 20:21:07;;;;;;;;;;;;;;;;;;6360723;27;20045;-70
2023/09/21 20:24:07;;;;;;;;;;;;;;;;;;6358379;27;20472;-69
2023/09/21 20:27:08;;;;;;;;;;;;;;;;;;6339597;27;20449;-70
2023/09/21 20:30:09;;;;;;;;;;;;;;;;;;6345816;27;19923;-69
2023/09/21 20:33:10;;;;;;;;;;;;;;;;;;6360278;27;19955;-70
2023/09/21 20:36:10;;;;;;;;;;;;;;;;;;6355976;27;19911;-69
2023/09/21 20:39:11;;;;;;;;;;;;;;;;;;6357191;27;20014;-69